sensor_id;sensor_type;location;lat;lon;timestamp;P1;durP1;ratioP1;P2;durP2;ratioP2
53801;SDS011;39709;53.334;6.534;2023-07-24T00:00:23;8.70;;;3.10;;
53801;SDS011;39709;53.334;6.534;2023-07-24T00:02:48;8.57;;;2.87;;
53801;SDS011;39709;53.334;6.534;2023-07-24T00:05:15;9.15;;;3.10;;
53801;SDS011;39709;53.334;6.534;2023-07-24T00:07:40;13.48;;;3.95;;
53801;SDS011;39709;53.334;6.534;2023-07-24T00:10:06;9.00;;;2.63;;
53801;SDS011;39709;53.334;6.534;2023-07-24T00:12:32;9.63;;;3.05;;
53801;SDS011;39709;53.334;6.534;2023-07-24T00:14:58;7.70;;;2.77;;
53801;SDS011;39709;53.334;6.534;2023-07-24T00:17:23;7.23;;;2.50;;
53801;SDS011;39709;53.334;6.534;2023-07-24T00:19:49;8.68;;;3.30;;
53801;SDS011;39709;53.334;6.534;2023-07-24T00:22:15;8.27;;;2.70;;
53801;SDS011;39709;53.334;6.534;2023-07-24T00:24:41;6.50;;;2.40;;
53801;SDS011;39709;53.334;6.534;2023-07-24T00:27:06;9.40;;;3.00;;
53801;SDS011;39709;53.334;6.534;2023-07-24T00:29:32;8.50;;;2.63;;
53801;SDS011;39709;53.334;6.534;2023-07-24T00:31:58;8.57;;;2.67;;
53801;SDS011;39709;53.334;6.534;2023-07-24T00:34:24;8.52;;;2.95;;
53801;SDS011;39709;53.334;6.534;2023-07-24T00:36:49;8.80;;;2.90;;
53801;SDS011;39709;53.334;6.534;2023-07-24T00:39:15;8.85;;;2.83;;
53801;SDS011;39709;53.334;6.534;2023-07-24T00:41:41;10.97;;;2.63;;
53801;SDS011;39709;53.334;6.534;2023-07-24T00:44:08;12.13;;;3.03;;
53801;SDS011;39709;53.334;6.534;2023-07-24T00:46:34;9.20;;;2.70;;
53801;SDS011;39709;53.334;6.534;2023-07-24T00:49:00;8.17;;;2.80;;
53801;SDS011;39709;53.334;6.534;2023-07-24T00:51:28;9.05;;;2.67;;
53801;SDS011;39709;53.334;6.534;2023-07-24T00:53:57;7.50;;;2.58;;
53801;SDS011;39709;53.334;6.534;2023-07-24T00:56:26;7.55;;;2.83;;
53801;SDS011;39709;53.334;6.534;2023-07-24T00:58:53;11.50;;;2.70;;
53801;SDS011;39709;53.334;6.534;2023-07-24T01:01:20;7.20;;;2.95;;
53801;SDS011;39709;53.334;6.534;2023-07-24T01:03:47;6.43;;;2.58;;
53801;SDS011;39709;53.334;6.534;2023-07-24T01:06:14;7.60;;;2.15;;
53801;SDS011;39709;53.334;6.534;2023-07-24T01:08:39;7.93;;;2.70;;
53801;SDS011;39709;53.334;6.534;2023-07-24T01:11:09;7.75;;;2.70;;
53801;SDS011;39709;53.334;6.534;2023-07-24T01:13:42;7.75;;;2.88;;
53801;SDS011;39709;53.334;6.534;2023-07-24T01:16:18;8.40;;;2.77;;
53801;SDS011;39709;53.334;6.534;2023-07-24T01:18:46;7.90;;;2.47;;
53801;SDS011;39709;53.334;6.534;2023-07-24T01:21:13;7.05;;;2.55;;
53801;SDS011;39709;53.334;6.534;2023-07-24T01:23:55;7.10;;;2.67;;
53801;SDS011;39709;53.334;6.534;2023-07-24T01:26:32;8.15;;;2.45;;
53801;SDS011;39709;53.334;6.534;2023-07-24T01:28:58;9.00;;;2.73;;
53801;SDS011;39709;53.334;6.534;2023-07-24T01:31:23;8.73;;;2.72;;
53801;SDS011;39709;53.334;6.534;2023-07-24T01:33:49;9.77;;;2.80;;
53801;SDS011;39709;53.334;6.534;2023-07-24T01:36:15;9.32;;;3.20;;
53801;SDS011;39709;53.334;6.534;2023-07-24T01:38:41;9.27;;;3.13;;
53801;SDS011;39709;53.334;6.534;2023-07-24T01:41:08;10.25;;;3.13;;
53801;SDS011;39709;53.334;6.534;2023-07-24T01:43:34;11.77;;;3.40;;
53801;SDS011;39709;53.334;6.534;2023-07-24T01:46:00;9.10;;;3.00;;
53801;SDS011;39709;53.334;6.534;2023-07-24T01:48:26;13.48;;;3.22;;
53801;SDS011;39709;53.334;6.534;2023-07-24T01:50:51;9.63;;;3.23;;
53801;SDS011;39709;53.334;6.534;2023-07-24T01:53:17;9.10;;;3.13;;
53801;SDS011;39709;53.334;6.534;2023-07-24T01:55:43;10.43;;;3.10;;
53801;SDS011;39709;53.334;6.534;2023-07-24T01:58:08;8.27;;;3.10;;
53801;SDS011;39709;53.334;6.534;2023-07-24T02:00:34;10.90;;;3.30;;
53801;SDS011;39709;53.334;6.534;2023-07-24T02:03:00;9.70;;;2.97;;
53801;SDS011;39709;53.334;6.534;2023-07-24T02:05:25;9.60;;;3.10;;
53801;SDS011;39709;53.334;6.534;2023-07-24T02:07:51;11.07;;;3.50;;
53801;SDS011;39709;53.334;6.534;2023-07-24T02:10:17;8.23;;;2.92;;
53801;SDS011;39709;53.334;6.534;2023-07-24T02:12:43;9.67;;;3.40;;
53801;SDS011;39709;53.334;6.534;2023-07-24T02:15:08;10.30;;;3.05;;
53801;SDS011;39709;53.334;6.534;2023-07-24T02:17:34;10.35;;;3.20;;
53801;SDS011;39709;53.334;6.534;2023-07-24T02:20:00;8.67;;;2.87;;
53801;SDS011;39709;53.334;6.534;2023-07-24T02:22:26;9.35;;;3.13;;
53801;SDS011;39709;53.334;6.534;2023-07-24T02:24:51;8.97;;;3.40;;
53801;SDS011;39709;53.334;6.534;2023-07-24T02:27:27;9.00;;;3.03;;
53801;SDS011;39709;53.334;6.534;2023-07-24T02:29:56;9.77;;;3.17;;
53801;SDS011;39709;53.334;6.534;2023-07-24T02:32:22;11.33;;;3.53;;
53801;SDS011;39709;53.334;6.534;2023-07-24T02:34:49;9.68;;;3.92;;
53801;SDS011;39709;53.334;6.534;2023-07-24T02:37:15;10.88;;;3.67;;
53801;SDS011;39709;53.334;6.534;2023-07-24T02:39:41;9.63;;;3.40;;
53801;SDS011;39709;53.334;6.534;2023-07-24T02:42:06;11.05;;;3.95;;
53801;SDS011;39709;53.334;6.534;2023-07-24T02:44:33;11.27;;;3.70;;
53801;SDS011;39709;53.334;6.534;2023-07-24T02:46:59;9.10;;;3.50;;
53801;SDS011;39709;53.334;6.534;2023-07-24T02:49:25;10.57;;;3.90;;
53801;SDS011;39709;53.334;6.534;2023-07-24T02:51:51;15.10;;;4.78;;
53801;SDS011;39709;53.334;6.534;2023-07-24T02:54:16;11.87;;;4.40;;
53801;SDS011;39709;53.334;6.534;2023-07-24T02:56:42;10.02;;;3.80;;
53801;SDS011;39709;53.334;6.534;2023-07-24T02:59:08;9.27;;;3.97;;
53801;SDS011;39709;53.334;6.534;2023-07-24T03:01:33;11.23;;;4.33;;
53801;SDS011;39709;53.334;6.534;2023-07-24T03:03:59;10.73;;;4.43;;
53801;SDS011;39709;53.334;6.534;2023-07-24T03:06:25;11.00;;;4.13;;
53801;SDS011;39709;53.334;6.534;2023-07-24T03:08:51;11.63;;;4.30;;
53801;SDS011;39709;53.334;6.534;2023-07-24T03:11:16;10.82;;;4.50;;
53801;SDS011;39709;53.334;6.534;2023-07-24T03:13:42;12.37;;;5.17;;
53801;SDS011;39709;53.334;6.534;2023-07-24T03:16:08;10.63;;;4.50;;
53801;SDS011;39709;53.334;6.534;2023-07-24T03:18:34;13.40;;;4.97;;
53801;SDS011;39709;53.334;6.534;2023-07-24T03:20:59;12.10;;;5.10;;
53801;SDS011;39709;53.334;6.534;2023-07-24T03:23:25;12.87;;;5.30;;
53801;SDS011;39709;53.334;6.534;2023-07-24T03:25:51;10.52;;;4.20;;
53801;SDS011;39709;53.334;6.534;2023-07-24T03:28:17;13.20;;;5.63;;
53801;SDS011;39709;53.334;6.534;2023-07-24T03:30:42;13.37;;;5.57;;
53801;SDS011;39709;53.334;6.534;2023-07-24T03:33:08;11.37;;;4.97;;
53801;SDS011;39709;53.334;6.534;2023-07-24T03:35:34;10.23;;;4.78;;
53801;SDS011;39709;53.334;6.534;2023-07-24T03:37:59;11.00;;;4.47;;
53801;SDS011;39709;53.334;6.534;2023-07-24T03:40:25;12.88;;;5.38;;
53801;SDS011;39709;53.334;6.534;2023-07-24T03:42:51;13.23;;;5.10;;
53801;SDS011;39709;53.334;6.534;2023-07-24T03:45:17;11.48;;;5.38;;
53801;SDS011;39709;53.334;6.534;2023-07-24T03:47:42;13.33;;;4.60;;
53801;SDS011;39709;53.334;6.534;2023-07-24T03:50:08;11.63;;;4.95;;
53801;SDS011;39709;53.334;6.534;2023-07-24T03:52:34;11.00;;;4.77;;
53801;SDS011;39709;53.334;6.534;2023-07-24T03:54:59;10.82;;;4.72;;
53801;SDS011;39709;53.334;6.534;2023-07-24T03:57:25;12.93;;;4.97;;
53801;SDS011;39709;53.334;6.534;2023-07-24T03:59:51;12.75;;;4.93;;
53801;SDS011;39709;53.334;6.534;2023-07-24T04:02:16;10.43;;;4.77;;
53801;SDS011;39709;53.334;6.534;2023-07-24T04:04:42;9.98;;;4.35;;
53801;SDS011;39709;53.334;6.534;2023-07-24T04:07:08;11.83;;;4.40;;
53801;SDS011;39709;53.334;6.534;2023-07-24T04:09:33;11.60;;;4.90;;
53801;SDS011;39709;53.334;6.534;2023-07-24T04:11:59;11.35;;;4.55;;
53801;SDS011;39709;53.334;6.534;2023-07-24T04:14:25;10.00;;;4.50;;
53801;SDS011;39709;53.334;6.534;2023-07-24T04:16:51;13.07;;;4.60;;
53801;SDS011;39709;53.334;6.534;2023-07-24T04:19:16;12.90;;;4.50;;
53801;SDS011;39709;53.334;6.534;2023-07-24T04:21:42;10.97;;;4.67;;
53801;SDS011;39709;53.334;6.534;2023-07-24T04:24:08;9.87;;;3.93;;
53801;SDS011;39709;53.334;6.534;2023-07-24T04:26:33;9.45;;;4.47;;
53801;SDS011;39709;53.334;6.534;2023-07-24T04:28:59;12.30;;;4.40;;
53801;SDS011;39709;53.334;6.534;2023-07-24T04:31:25;10.68;;;4.55;;
53801;SDS011;39709;53.334;6.534;2023-07-24T04:33:50;12.63;;;3.80;;
53801;SDS011;39709;53.334;6.534;2023-07-24T04:36:16;9.03;;;3.93;;
53801;SDS011;39709;53.334;6.534;2023-07-24T04:38:42;11.02;;;4.03;;
53801;SDS011;39709;53.334;6.534;2023-07-24T04:41:07;10.33;;;4.30;;
53801;SDS011;39709;53.334;6.534;2023-07-24T04:43:33;13.23;;;4.00;;
53801;SDS011;39709;53.334;6.534;2023-07-24T04:45:59;10.82;;;4.68;;
53801;SDS011;39709;53.334;6.534;2023-07-24T04:48:25;10.43;;;3.63;;
53801;SDS011;39709;53.334;6.534;2023-07-24T04:50:54;9.70;;;3.57;;
53801;SDS011;39709;53.334;6.534;2023-07-24T04:53:20;11.70;;;3.93;;
53801;SDS011;39709;53.334;6.534;2023-07-24T04:55:46;10.50;;;4.03;;
53801;SDS011;39709;53.334;6.534;2023-07-24T04:58:12;9.23;;;3.20;;
53801;SDS011;39709;53.334;6.534;2023-07-24T05:00:38;10.03;;;3.27;;
53801;SDS011;39709;53.334;6.534;2023-07-24T05:03:03;10.98;;;4.03;;
53801;SDS011;39709;53.334;6.534;2023-07-24T05:05:30;7.32;;;3.40;;
53801;SDS011;39709;53.334;6.534;2023-07-24T05:07:56;10.65;;;3.88;;
53801;SDS011;39709;53.334;6.534;2023-07-24T05:10:22;9.27;;;3.57;;
53801;SDS011;39709;53.334;6.534;2023-07-24T05:12:48;10.52;;;3.65;;
53801;SDS011;39709;53.334;6.534;2023-07-24T05:15:13;9.83;;;3.67;;
53801;SDS011;39709;53.334;6.534;2023-07-24T05:17:42;8.50;;;3.60;;
53801;SDS011;39709;53.334;6.534;2023-07-24T05:20:10;10.05;;;4.00;;
53801;SDS011;39709;53.334;6.534;2023-07-24T05:22:36;9.37;;;3.83;;
53801;SDS011;39709;53.334;6.534;2023-07-24T05:25:02;10.40;;;4.05;;
53801;SDS011;39709;53.334;6.534;2023-07-24T05:27:27;8.40;;;3.77;;
53801;SDS011;39709;53.334;6.534;2023-07-24T05:29:54;9.70;;;4.25;;
53801;SDS011;39709;53.334;6.534;2023-07-24T05:32:20;8.75;;;3.97;;
53801;SDS011;39709;53.334;6.534;2023-07-24T05:34:46;9.68;;;4.30;;
53801;SDS011;39709;53.334;6.534;2023-07-24T05:37:12;9.80;;;4.17;;
53801;SDS011;39709;53.334;6.534;2023-07-24T05:39:37;9.20;;;4.10;;
53801;SDS011;39709;53.334;6.534;2023-07-24T05:42:03;10.20;;;4.23;;
53801;SDS011;39709;53.334;6.534;2023-07-24T05:44:29;12.35;;;4.40;;
53801;SDS011;39709;53.334;6.534;2023-07-24T05:46:55;9.37;;;4.10;;
53801;SDS011;39709;53.334;6.534;2023-07-24T05:49:20;8.90;;;4.45;;
53801;SDS011;39709;53.334;6.534;2023-07-24T05:51:46;9.97;;;3.97;;
53801;SDS011;39709;53.334;6.534;2023-07-24T05:54:12;12.02;;;3.80;;
53801;SDS011;39709;53.334;6.534;2023-07-24T05:56:37;9.37;;;3.93;;
53801;SDS011;39709;53.334;6.534;2023-07-24T05:59:03;9.47;;;4.07;;
53801;SDS011;39709;53.334;6.534;2023-07-24T06:01:28;9.18;;;4.07;;
53801;SDS011;39709;53.334;6.534;2023-07-24T06:03:54;10.37;;;4.30;;
53801;SDS011;39709;53.334;6.534;2023-07-24T06:06:20;12.85;;;4.68;;
53801;SDS011;39709;53.334;6.534;2023-07-24T06:08:45;8.67;;;3.93;;
53801;SDS011;39709;53.334;6.534;2023-07-24T06:11:12;9.60;;;4.65;;
53801;SDS011;39709;53.334;6.534;2023-07-24T06:13:38;10.40;;;4.13;;
53801;SDS011;39709;53.334;6.534;2023-07-24T06:16:03;8.85;;;4.60;;
53801;SDS011;39709;53.334;6.534;2023-07-24T06:18:29;11.27;;;5.10;;
53801;SDS011;39709;53.334;6.534;2023-07-24T06:20:55;10.52;;;4.53;;
53801;SDS011;39709;53.334;6.534;2023-07-24T06:23:21;10.43;;;4.63;;
53801;SDS011;39709;53.334;6.534;2023-07-24T06:25:46;9.30;;;3.97;;
53801;SDS011;39709;53.334;6.534;2023-07-24T06:28:12;10.23;;;4.87;;
53801;SDS011;39709;53.334;6.534;2023-07-24T06:30:38;11.33;;;4.60;;
53801;SDS011;39709;53.334;6.534;2023-07-24T06:33:04;9.68;;;4.32;;
53801;SDS011;39709;53.334;6.534;2023-07-24T06:35:30;9.23;;;4.60;;
53801;SDS011;39709;53.334;6.534;2023-07-24T06:37:56;10.80;;;4.72;;
53801;SDS011;39709;53.334;6.534;2023-07-24T06:40:21;10.60;;;3.95;;
53801;SDS011;39709;53.334;6.534;2023-07-24T06:42:47;10.30;;;4.17;;
53801;SDS011;39709;53.334;6.534;2023-07-24T06:45:13;9.95;;;3.88;;
53801;SDS011;39709;53.334;6.534;2023-07-24T06:47:38;7.90;;;2.90;;
53801;SDS011;39709;53.334;6.534;2023-07-24T06:50:04;12.00;;;3.78;;
53801;SDS011;39709;53.334;6.534;2023-07-24T06:52:31;8.63;;;3.30;;
53801;SDS011;39709;53.334;6.534;2023-07-24T06:54:58;8.02;;;2.92;;
53801;SDS011;39709;53.334;6.534;2023-07-24T06:57:24;9.20;;;3.70;;
53801;SDS011;39709;53.334;6.534;2023-07-24T06:59:50;8.90;;;3.90;;
53801;SDS011;39709;53.334;6.534;2023-07-24T07:02:15;9.53;;;3.93;;
53801;SDS011;39709;53.334;6.534;2023-07-24T07:04:41;11.00;;;4.38;;
53801;SDS011;39709;53.334;6.534;2023-07-24T07:07:07;9.93;;;3.80;;
53801;SDS011;39709;53.334;6.534;2023-07-24T07:09:32;8.93;;;3.15;;
53801;SDS011;39709;53.334;6.534;2023-07-24T07:11:58;10.63;;;4.50;;
53801;SDS011;39709;53.334;6.534;2023-07-24T07:14:24;9.95;;;3.53;;
53801;SDS011;39709;53.334;6.534;2023-07-24T07:16:50;9.13;;;4.17;;
53801;SDS011;39709;53.334;6.534;2023-07-24T07:19:15;8.52;;;3.85;;
53801;SDS011;39709;53.334;6.534;2023-07-24T07:21:41;5.97;;;2.47;;
53801;SDS011;39709;53.334;6.534;2023-07-24T07:24:07;9.23;;;3.00;;
53801;SDS011;39709;53.334;6.534;2023-07-24T07:26:32;12.50;;;4.00;;
53801;SDS011;39709;53.334;6.534;2023-07-24T07:28:58;10.35;;;3.78;;
53801;SDS011;39709;53.334;6.534;2023-07-24T07:31:24;8.40;;;3.80;;
53801;SDS011;39709;53.334;6.534;2023-07-24T07:33:50;14.00;;;4.30;;
53801;SDS011;39709;53.334;6.534;2023-07-24T07:36:16;10.45;;;3.58;;
53801;SDS011;39709;53.334;6.534;2023-07-24T07:38:43;11.15;;;3.92;;
53801;SDS011;39709;53.334;6.534;2023-07-24T07:41:08;11.73;;;4.40;;
53801;SDS011;39709;53.334;6.534;2023-07-24T07:43:34;10.43;;;4.32;;
53801;SDS011;39709;53.334;6.534;2023-07-24T07:46:01;11.35;;;3.08;;
53801;SDS011;39709;53.334;6.534;2023-07-24T07:48:28;10.35;;;4.30;;
53801;SDS011;39709;53.334;6.534;2023-07-24T07:50:53;9.23;;;3.70;;
53801;SDS011;39709;53.334;6.534;2023-07-24T07:53:19;9.30;;;3.53;;
53801;SDS011;39709;53.334;6.534;2023-07-24T07:55:45;8.87;;;3.27;;
53801;SDS011;39709;53.334;6.534;2023-07-24T07:58:10;9.63;;;4.30;;
53801;SDS011;39709;53.334;6.534;2023-07-24T08:00:36;9.13;;;3.70;;
53801;SDS011;39709;53.334;6.534;2023-07-24T08:03:04;10.23;;;4.10;;
53801;SDS011;39709;53.334;6.534;2023-07-24T08:05:30;9.60;;;4.07;;
53801;SDS011;39709;53.334;6.534;2023-07-24T08:07:57;9.63;;;3.95;;
53801;SDS011;39709;53.334;6.534;2023-07-24T08:10:23;10.10;;;3.83;;
53801;SDS011;39709;53.334;6.534;2023-07-24T08:12:49;10.52;;;3.92;;
53801;SDS011;39709;53.334;6.534;2023-07-24T08:15:14;11.60;;;4.10;;
53801;SDS011;39709;53.334;6.534;2023-07-24T08:17:40;10.27;;;4.53;;
53801;SDS011;39709;53.334;6.534;2023-07-24T08:20:06;9.43;;;3.70;;
53801;SDS011;39709;53.334;6.534;2023-07-24T08:22:32;9.30;;;3.78;;
53801;SDS011;39709;53.334;6.534;2023-07-24T08:24:58;10.60;;;3.80;;
53801;SDS011;39709;53.334;6.534;2023-07-24T08:27:23;10.60;;;3.07;;
53801;SDS011;39709;53.334;6.534;2023-07-24T08:29:52;8.57;;;3.47;;
53801;SDS011;39709;53.334;6.534;2023-07-24T08:32:18;8.57;;;3.07;;
53801;SDS011;39709;53.334;6.534;2023-07-24T08:34:44;13.07;;;3.70;;
53801;SDS011;39709;53.334;6.534;2023-07-24T08:37:11;12.55;;;3.60;;
53801;SDS011;39709;53.334;6.534;2023-07-24T08:39:37;9.75;;;3.72;;
53801;SDS011;39709;53.334;6.534;2023-07-24T08:42:10;9.50;;;3.30;;
53801;SDS011;39709;53.334;6.534;2023-07-24T08:44:37;9.25;;;3.70;;
53801;SDS011;39709;53.334;6.534;2023-07-24T08:47:03;11.27;;;3.85;;
53801;SDS011;39709;53.334;6.534;2023-07-24T08:49:31;10.63;;;3.92;;
53801;SDS011;39709;53.334;6.534;2023-07-24T08:51:58;9.40;;;3.80;;
53801;SDS011;39709;53.334;6.534;2023-07-24T08:54:26;9.70;;;3.77;;
53801;SDS011;39709;53.334;6.534;2023-07-24T08:56:52;11.10;;;3.90;;
53801;SDS011;39709;53.334;6.534;2023-07-24T08:59:18;8.73;;;3.22;;
53801;SDS011;39709;53.334;6.534;2023-07-24T09:01:44;9.70;;;3.60;;
53801;SDS011;39709;53.334;6.534;2023-07-24T09:04:10;9.30;;;3.77;;
53801;SDS011;39709;53.334;6.534;2023-07-24T09:06:36;10.82;;;3.10;;
53801;SDS011;39709;53.334;6.534;2023-07-24T09:09:11;9.90;;;3.40;;
53801;SDS011;39709;53.334;6.534;2023-07-24T09:11:48;9.65;;;3.75;;
53801;SDS011;39709;53.334;6.534;2023-07-24T09:14:22;7.97;;;3.13;;
53801;SDS011;39709;53.334;6.534;2023-07-24T09:16:49;10.35;;;3.70;;
53801;SDS011;39709;53.334;6.534;2023-07-24T09:19:18;9.75;;;3.83;;
53801;SDS011;39709;53.334;6.534;2023-07-24T09:21:44;12.30;;;3.60;;
53801;SDS011;39709;53.334;6.534;2023-07-24T09:24:11;10.88;;;3.65;;
53801;SDS011;39709;53.334;6.534;2023-07-24T09:26:50;11.15;;;3.63;;
53801;SDS011;39709;53.334;6.534;2023-07-24T09:29:17;10.68;;;3.80;;
53801;SDS011;39709;53.334;6.534;2023-07-24T09:31:43;11.18;;;3.70;;
53801;SDS011;39709;53.334;6.534;2023-07-24T09:34:17;8.57;;;3.87;;
53801;SDS011;39709;53.334;6.534;2023-07-24T09:36:43;9.32;;;3.40;;
53801;SDS011;39709;53.334;6.534;2023-07-24T09:39:09;7.75;;;2.60;;
53801;SDS011;39709;53.334;6.534;2023-07-24T09:41:37;10.38;;;3.72;;
53801;SDS011;39709;53.334;6.534;2023-07-24T09:44:04;8.07;;;3.40;;
53801;SDS011;39709;53.334;6.534;2023-07-24T09:46:30;9.60;;;3.33;;
53801;SDS011;39709;53.334;6.534;2023-07-24T09:48:57;9.05;;;3.72;;
53801;SDS011;39709;53.334;6.534;2023-07-24T09:51:23;11.98;;;4.10;;
53801;SDS011;39709;53.334;6.534;2023-07-24T09:54:00;12.25;;;3.97;;
53801;SDS011;39709;53.334;6.534;2023-07-24T09:56:40;8.73;;;3.40;;
53801;SDS011;39709;53.334;6.534;2023-07-24T09:59:07;7.82;;;2.83;;
53801;SDS011;39709;53.334;6.534;2023-07-24T10:01:35;10.50;;;3.40;;
53801;SDS011;39709;53.334;6.534;2023-07-24T10:04:03;10.02;;;3.50;;
53801;SDS011;39709;53.334;6.534;2023-07-24T10:06:29;7.50;;;3.50;;
53801;SDS011;39709;53.334;6.534;2023-07-24T10:08:56;7.63;;;3.20;;
53801;SDS011;39709;53.334;6.534;2023-07-24T10:11:23;6.82;;;3.40;;
53801;SDS011;39709;53.334;6.534;2023-07-24T10:13:50;6.57;;;2.25;;
53801;SDS011;39709;53.334;6.534;2023-07-24T10:16:16;6.53;;;2.15;;
53801;SDS011;39709;53.334;6.534;2023-07-24T10:18:45;6.43;;;2.43;;
53801;SDS011;39709;53.334;6.534;2023-07-24T10:21:12;7.35;;;2.72;;
53801;SDS011;39709;53.334;6.534;2023-07-24T10:23:45;7.72;;;3.00;;
53801;SDS011;39709;53.334;6.534;2023-07-24T10:26:14;9.60;;;2.90;;
53801;SDS011;39709;53.334;6.534;2023-07-24T10:28:41;8.57;;;3.17;;
53801;SDS011;39709;53.334;6.534;2023-07-24T10:31:08;8.38;;;3.20;;
53801;SDS011;39709;53.334;6.534;2023-07-24T10:33:44;7.78;;;3.38;;
53801;SDS011;39709;53.334;6.534;2023-07-24T10:36:10;8.75;;;3.50;;
53801;SDS011;39709;53.334;6.534;2023-07-24T10:38:42;9.83;;;4.00;;
53801;SDS011;39709;53.334;6.534;2023-07-24T10:41:09;9.27;;;3.50;;
53801;SDS011;39709;53.334;6.534;2023-07-24T10:43:46;10.50;;;4.07;;
53801;SDS011;39709;53.334;6.534;2023-07-24T10:46:13;7.47;;;2.90;;
53801;SDS011;39709;53.334;6.534;2023-07-24T10:48:44;6.82;;;2.40;;
53801;SDS011;39709;53.334;6.534;2023-07-24T10:51:11;7.33;;;2.53;;
53801;SDS011;39709;53.334;6.534;2023-07-24T10:53:41;7.10;;;2.80;;
53801;SDS011;39709;53.334;6.534;2023-07-24T10:56:11;8.13;;;3.00;;
53801;SDS011;39709;53.334;6.534;2023-07-24T10:58:37;7.95;;;3.38;;
53801;SDS011;39709;53.334;6.534;2023-07-24T11:01:03;5.33;;;2.43;;
53801;SDS011;39709;53.334;6.534;2023-07-24T11:03:30;7.18;;;2.83;;
53801;SDS011;39709;53.334;6.534;2023-07-24T11:05:56;9.80;;;3.45;;
53801;SDS011;39709;53.334;6.534;2023-07-24T11:08:23;9.70;;;3.53;;
53801;SDS011;39709;53.334;6.534;2023-07-24T11:10:52;10.73;;;3.27;;
53801;SDS011;39709;53.334;6.534;2023-07-24T11:13:25;8.00;;;3.10;;
53801;SDS011;39709;53.334;6.534;2023-07-24T11:15:52;8.60;;;3.75;;
53801;SDS011;39709;53.334;6.534;2023-07-24T11:18:19;7.90;;;3.60;;
53801;SDS011;39709;53.334;6.534;2023-07-24T11:20:51;8.27;;;3.50;;
53801;SDS011;39709;53.334;6.534;2023-07-24T11:23:18;6.90;;;3.60;;
53801;SDS011;39709;53.334;6.534;2023-07-24T11:25:44;10.00;;;4.20;;
53801;SDS011;39709;53.334;6.534;2023-07-24T11:28:11;9.23;;;3.85;;
53801;SDS011;39709;53.334;6.534;2023-07-24T11:30:38;11.38;;;4.22;;
53801;SDS011;39709;53.334;6.534;2023-07-24T11:33:09;9.90;;;4.20;;
53801;SDS011;39709;53.334;6.534;2023-07-24T11:35:36;10.77;;;3.70;;
53801;SDS011;39709;53.334;6.534;2023-07-24T11:38:05;10.50;;;4.30;;
53801;SDS011;39709;53.334;6.534;2023-07-24T11:40:37;19.50;;;5.30;;
53801;SDS011;39709;53.334;6.534;2023-07-24T11:43:18;13.93;;;4.45;;
53801;SDS011;39709;53.334;6.534;2023-07-24T11:45:46;9.63;;;4.00;;
53801;SDS011;39709;53.334;6.534;2023-07-24T11:48:22;9.17;;;3.03;;
53801;SDS011;39709;53.334;6.534;2023-07-24T11:50:49;7.82;;;3.70;;
53801;SDS011;39709;53.334;6.534;2023-07-24T11:53:27;8.65;;;3.17;;
53801;SDS011;39709;53.334;6.534;2023-07-24T11:55:55;9.35;;;3.50;;
53801;SDS011;39709;53.334;6.534;2023-07-24T11:58:22;9.20;;;4.38;;
53801;SDS011;39709;53.334;6.534;2023-07-24T12:00:51;8.50;;;3.30;;
53801;SDS011;39709;53.334;6.534;2023-07-24T12:03:21;7.82;;;3.58;;
53801;SDS011;39709;53.334;6.534;2023-07-24T12:05:49;7.53;;;3.38;;
53801;SDS011;39709;53.334;6.534;2023-07-24T12:08:16;9.23;;;3.50;;
53801;SDS011;39709;53.334;6.534;2023-07-24T12:10:42;7.10;;;3.00;;
53801;SDS011;39709;53.334;6.534;2023-07-24T12:13:08;6.90;;;3.40;;
53801;SDS011;39709;53.334;6.534;2023-07-24T12:15:34;8.02;;;3.28;;
53801;SDS011;39709;53.334;6.534;2023-07-24T12:18:01;7.68;;;2.97;;
53801;SDS011;39709;53.334;6.534;2023-07-24T12:20:27;6.67;;;3.10;;
53801;SDS011;39709;53.334;6.534;2023-07-24T12:22:53;6.95;;;3.03;;
53801;SDS011;39709;53.334;6.534;2023-07-24T12:25:19;6.20;;;2.88;;
53801;SDS011;39709;53.334;6.534;2023-07-24T12:27:46;6.80;;;3.08;;
53801;SDS011;39709;53.334;6.534;2023-07-24T12:30:12;5.90;;;2.63;;
53801;SDS011;39709;53.334;6.534;2023-07-24T12:32:38;6.88;;;3.22;;
53801;SDS011;39709;53.334;6.534;2023-07-24T12:35:04;7.38;;;3.25;;
53801;SDS011;39709;53.334;6.534;2023-07-24T12:37:30;6.27;;;2.60;;
53801;SDS011;39709;53.334;6.534;2023-07-24T12:39:56;6.65;;;2.38;;
53801;SDS011;39709;53.334;6.534;2023-07-24T12:42:22;8.30;;;2.60;;
53801;SDS011;39709;53.334;6.534;2023-07-24T12:44:48;6.03;;;2.13;;
53801;SDS011;39709;53.334;6.534;2023-07-24T12:47:14;6.30;;;2.00;;
53801;SDS011;39709;53.334;6.534;2023-07-24T12:49:40;7.63;;;2.10;;
53801;SDS011;39709;53.334;6.534;2023-07-24T12:52:06;6.43;;;2.10;;
53801;SDS011;39709;53.334;6.534;2023-07-24T12:54:32;8.48;;;2.30;;
53801;SDS011;39709;53.334;6.534;2023-07-24T12:56:59;5.60;;;2.27;;
53801;SDS011;39709;53.334;6.534;2023-07-24T12:59:25;6.90;;;2.00;;
53801;SDS011;39709;53.334;6.534;2023-07-24T13:01:51;5.65;;;1.52;;
53801;SDS011;39709;53.334;6.534;2023-07-24T13:04:16;4.60;;;1.40;;
53801;SDS011;39709;53.334;6.534;2023-07-24T13:06:43;4.00;;;1.00;;
53801;SDS011;39709;53.334;6.534;2023-07-24T13:09:09;4.10;;;1.13;;
53801;SDS011;39709;53.334;6.534;2023-07-24T13:11:35;2.58;;;0.70;;
53801;SDS011;39709;53.334;6.534;2023-07-24T13:14:01;3.93;;;1.00;;
53801;SDS011;39709;53.334;6.534;2023-07-24T13:16:27;3.92;;;1.10;;
53801;SDS011;39709;53.334;6.534;2023-07-24T13:18:53;3.50;;;0.90;;
53801;SDS011;39709;53.334;6.534;2023-07-24T13:21:19;4.03;;;0.90;;
53801;SDS011;39709;53.334;6.534;2023-07-24T13:23:44;4.90;;;1.13;;
53801;SDS011;39709;53.334;6.534;2023-07-24T13:26:10;4.43;;;1.27;;
53801;SDS011;39709;53.334;6.534;2023-07-24T13:28:38;4.90;;;1.10;;
53801;SDS011;39709;53.334;6.534;2023-07-24T13:31:11;5.75;;;1.20;;
53801;SDS011;39709;53.334;6.534;2023-07-24T13:33:38;5.72;;;1.10;;
53801;SDS011;39709;53.334;6.534;2023-07-24T13:36:04;4.55;;;1.17;;
53801;SDS011;39709;53.334;6.534;2023-07-24T13:38:29;4.00;;;0.90;;
53801;SDS011;39709;53.334;6.534;2023-07-24T13:40:55;4.65;;;1.20;;
53801;SDS011;39709;53.334;6.534;2023-07-24T13:43:21;3.50;;;0.80;;
53801;SDS011;39709;53.334;6.534;2023-07-24T13:45:47;3.72;;;1.10;;
53801;SDS011;39709;53.334;6.534;2023-07-24T13:48:12;5.87;;;1.00;;
53801;SDS011;39709;53.334;6.534;2023-07-24T13:50:38;7.10;;;1.73;;
53801;SDS011;39709;53.334;6.534;2023-07-24T13:53:03;5.32;;;1.40;;
53801;SDS011;39709;53.334;6.534;2023-07-24T13:55:30;6.72;;;1.58;;
53801;SDS011;39709;53.334;6.534;2023-07-24T13:57:55;5.80;;;1.60;;
53801;SDS011;39709;53.334;6.534;2023-07-24T14:00:21;9.57;;;2.00;;
53801;SDS011;39709;53.334;6.534;2023-07-24T14:02:47;7.53;;;1.70;;
53801;SDS011;39709;53.334;6.534;2023-07-24T14:05:12;4.90;;;1.40;;
53801;SDS011;39709;53.334;6.534;2023-07-24T14:07:38;9.67;;;1.93;;
53801;SDS011;39709;53.334;6.534;2023-07-24T14:10:04;7.35;;;1.63;;
53801;SDS011;39709;53.334;6.534;2023-07-24T14:12:30;9.35;;;1.50;;
53801;SDS011;39709;53.334;6.534;2023-07-24T14:14:56;9.17;;;1.60;;
53801;SDS011;39709;53.334;6.534;2023-07-24T14:17:22;7.13;;;1.20;;
53801;SDS011;39709;53.334;6.534;2023-07-24T14:19:47;9.70;;;1.77;;
53801;SDS011;39709;53.334;6.534;2023-07-24T14:22:13;6.17;;;1.33;;
53801;SDS011;39709;53.334;6.534;2023-07-24T14:24:39;7.40;;;1.58;;
53801;SDS011;39709;53.334;6.534;2023-07-24T14:27:04;8.77;;;1.60;;
53801;SDS011;39709;53.334;6.534;2023-07-24T14:29:31;7.40;;;1.33;;
53801;SDS011;39709;53.334;6.534;2023-07-24T14:31:57;6.13;;;1.17;;
53801;SDS011;39709;53.334;6.534;2023-07-24T14:34:23;7.78;;;1.40;;
53801;SDS011;39709;53.334;6.534;2023-07-24T14:36:49;6.10;;;1.20;;
53801;SDS011;39709;53.334;6.534;2023-07-24T14:39:14;8.80;;;1.43;;